createdAt,value
2017-12-27T00:02:37.568Z,6.93
2017-12-27T00:05:12.006Z,6.96
2017-12-27T00:07:45.744Z,6.98
2017-12-27T00:10:19.702Z,6.97
2017-12-27T00:12:54.165Z,6.98
2017-12-27T00:15:27.890Z,6.98
2017-12-27T00:18:01.758Z,6.97
2017-12-27T00:20:36.256Z,6.93
2017-12-27T00:26:20.188Z,6.86
2017-12-27T00:31:54.637Z,6.79
2017-12-27T00:34:22.955Z,6.76
2017-12-27T00:36:51.263Z,6.72
2017-12-27T00:39:19.600Z,6.68
2017-12-27T00:41:47.996Z,6.67
2017-12-27T00:44:16.304Z,6.65
2017-12-27T00:46:45.364Z,6.66
2017-12-27T00:49:13.666Z,6.67
2017-12-27T00:51:42.754Z,6.66
2017-12-27T00:54:11.087Z,6.67
2017-12-27T00:56:40.253Z,6.67
2017-12-27T00:59:08.559Z,6.70
2017-12-27T01:01:36.862Z,6.67
2017-12-27T01:04:05.172Z,6.67
2017-12-27T01:06:33.494Z,6.74
2017-12-27T01:09:01.804Z,6.73
2017-12-27T01:11:30.102Z,6.72
2017-12-27T01:13:58.428Z,6.72
2017-12-27T01:16:27.514Z,6.72
2017-12-27T01:18:56.596Z,6.73
2017-12-27T01:21:24.915Z,6.73
2017-12-27T01:23:53.750Z,6.76
2017-12-27T01:26:22.064Z,6.83
2017-12-27T01:28:51.166Z,6.86
2017-12-27T01:31:19.534Z,6.88
2017-12-27T01:33:47.886Z,6.88
2017-12-27T01:36:17.372Z,6.91
2017-12-27T01:38:45.752Z,6.91
2017-12-27T01:41:14.086Z,6.93
2017-12-27T01:43:42.596Z,6.94
2017-12-27T01:46:11.152Z,6.96
2017-12-27T01:48:40.380Z,6.96
2017-12-27T01:51:09.033Z,6.97
2017-12-27T01:53:37.339Z,6.97
2017-12-27T01:56:06.682Z,6.97
2017-12-27T01:58:35.010Z,6.96
2017-12-27T02:01:03.315Z,6.95
2017-12-27T02:03:32.506Z,6.94
2017-12-27T02:06:01.640Z,6.92
2017-12-27T02:08:29.982Z,6.91
2017-12-27T02:10:58.368Z,6.89
2017-12-27T02:13:27.670Z,6.87
2017-12-27T02:15:55.986Z,6.86
2017-12-27T02:18:24.344Z,6.86
2017-12-27T02:20:52.672Z,6.84
2017-12-27T02:23:20.971Z,6.83
2017-12-27T02:25:50.078Z,6.82
2017-12-27T02:28:18.420Z,6.81
2017-12-27T02:30:46.979Z,6.80
2017-12-27T02:33:16.171Z,6.80
2017-12-27T02:35:45.348Z,6.79
2017-12-27T02:38:13.696Z,6.78
2017-12-27T02:40:41.997Z,6.75
2017-12-27T02:43:10.344Z,6.74
2017-12-27T02:45:38.662Z,6.73
2017-12-27T02:48:07.129Z,6.72
2017-12-27T02:50:35.430Z,6.72
2017-12-27T02:53:04.027Z,6.71
2017-12-27T02:55:32.363Z,6.72
2017-12-27T02:58:00.686Z,6.72
2017-12-27T03:00:29.042Z,6.71
2017-12-27T03:02:58.108Z,6.71
2017-12-27T03:05:26.498Z,6.69
2017-12-27T03:07:54.816Z,6.70
2017-12-27T03:10:23.138Z,6.66
2017-12-27T03:12:52.207Z,6.65
2017-12-27T03:15:20.560Z,6.66
2017-12-27T03:17:48.910Z,6.62
2017-12-27T03:20:17.238Z,6.61
2017-12-27T03:22:45.563Z,6.59
2017-12-27T03:25:14.720Z,6.58
2017-12-27T03:27:43.872Z,6.58
2017-12-27T03:30:12.186Z,6.58
2017-12-27T03:32:40.513Z,6.58
2017-12-27T03:35:09.614Z,6.59
2017-12-27T03:37:38.672Z,6.60
2017-12-27T03:40:07.018Z,6.60
2017-12-27T03:42:35.358Z,6.59
2017-12-27T03:45:03.706Z,6.58
2017-12-27T03:47:32.185Z,6.60
2017-12-27T03:50:00.510Z,6.59
2017-12-27T03:52:28.834Z,6.58
2017-12-27T03:54:57.150Z,6.58
2017-12-27T03:57:25.599Z,6.58
2017-12-27T03:59:53.922Z,6.56
2017-12-27T04:02:22.231Z,6.56
2017-12-27T04:04:51.298Z,6.55
2017-12-27T04:07:19.646Z,6.53
2017-12-27T04:09:47.953Z,6.53
2017-12-27T04:12:16.274Z,6.52
2017-12-27T04:14:45.345Z,6.52
2017-12-27T04:17:14.436Z,6.50
2017-12-27T04:19:42.735Z,6.50
2017-12-27T04:22:11.054Z,6.52
2017-12-27T04:24:39.350Z,6.50
2017-12-27T04:27:07.663Z,6.49
2017-12-27T04:29:35.992Z,6.48
2017-12-27T04:32:04.310Z,6.49
2017-12-27T04:34:32.602Z,6.49
2017-12-27T04:37:00.894Z,6.48
2017-12-27T04:39:29.199Z,6.47
2017-12-27T04:41:57.490Z,6.46
2017-12-27T04:44:25.811Z,6.45
2017-12-27T04:46:54.129Z,6.45
2017-12-27T04:49:23.264Z,6.45
2017-12-27T04:51:51.545Z,6.45
2017-12-27T04:54:19.848Z,6.44
2017-12-27T04:56:48.209Z,6.43
2017-12-27T04:59:16.517Z,6.41
2017-12-27T05:01:44.831Z,6.41
2017-12-27T05:04:13.900Z,6.41
2017-12-27T05:06:42.232Z,6.39
2017-12-27T05:09:10.542Z,6.40
2017-12-27T05:11:38.876Z,6.40
2017-12-27T05:14:07.945Z,6.38
2017-12-27T05:16:36.242Z,6.38
2017-12-27T05:19:05.309Z,6.39
2017-12-27T05:21:33.717Z,6.38
2017-12-27T05:24:02.031Z,6.38
2017-12-27T05:26:30.343Z,6.39
2017-12-27T05:28:58.672Z,6.40
2017-12-27T05:31:27.735Z,6.37
2017-12-27T05:33:56.075Z,6.36
2017-12-27T05:36:24.377Z,6.35
2017-12-27T05:38:52.665Z,6.36
2017-12-27T05:41:20.966Z,6.36
2017-12-27T05:43:49.275Z,6.36
2017-12-27T05:46:18.383Z,6.36
2017-12-27T05:48:46.681Z,6.36
2017-12-27T05:51:15.015Z,6.34
2017-12-27T05:53:43.339Z,6.33
2017-12-27T05:56:11.651Z,6.33
2017-12-27T05:58:40.025Z,6.31
2017-12-27T06:01:08.309Z,6.31
2017-12-27T06:03:36.635Z,6.31
2017-12-27T06:06:05.805Z,6.30
2017-12-27T06:08:34.105Z,6.32
2017-12-27T06:11:03.199Z,6.32
2017-12-27T06:13:31.529Z,6.30
2017-12-27T06:15:59.843Z,6.28
2017-12-27T06:18:28.155Z,6.28
2017-12-27T06:20:57.254Z,6.26
2017-12-27T06:23:26.333Z,6.26
2017-12-27T06:25:54.675Z,6.26
2017-12-27T06:28:23.071Z,6.26
2017-12-27T06:30:51.390Z,6.25
2017-12-27T06:33:20.559Z,6.24
2017-12-27T06:35:48.883Z,6.22
2017-12-27T06:38:17.999Z,6.21
2017-12-27T06:40:46.301Z,6.20
2017-12-27T06:43:14.597Z,6.17
2017-12-27T06:45:42.899Z,6.13
2017-12-27T06:48:11.275Z,6.11
2017-12-27T06:50:39.601Z,6.08
2017-12-27T06:53:07.932Z,6.06
2017-12-27T06:55:36.233Z,6.04
2017-12-27T06:58:05.294Z,6.02
2017-12-27T07:00:34.367Z,6.02
2017-12-27T07:03:02.687Z,6.01
2017-12-27T07:05:31.003Z,5.98
2017-12-27T07:08:00.098Z,5.96
2017-12-27T07:10:29.308Z,5.96
2017-12-27T07:12:58.391Z,5.95
2017-12-27T07:15:27.476Z,5.96
2017-12-27T07:17:55.775Z,5.98
2017-12-27T07:20:24.859Z,5.96
2017-12-27T07:22:53.185Z,5.95
2017-12-27T07:25:21.494Z,5.94
2017-12-27T07:27:49.792Z,5.92
2017-12-27T07:30:18.095Z,5.92
2017-12-27T07:32:47.341Z,5.92
2017-12-27T07:35:15.655Z,5.92
2017-12-27T07:37:43.965Z,5.93
2017-12-27T07:40:13.027Z,5.93
2017-12-27T07:42:41.331Z,5.91
2017-12-27T07:45:11.185Z,5.90
2017-12-27T07:47:39.487Z,5.88
2017-12-27T07:50:08.547Z,5.88
2017-12-27T07:52:36.850Z,5.88
2017-12-27T07:55:05.143Z,5.87
2017-12-27T07:57:33.440Z,5.88
2017-12-27T08:00:01.728Z,5.89
2017-12-27T08:02:30.019Z,5.88
2017-12-27T08:04:59.102Z,5.88
2017-12-27T08:07:27.429Z,5.89
2017-12-27T08:09:55.736Z,5.90
2017-12-27T08:12:24.057Z,5.91
2017-12-27T08:14:52.440Z,5.90
2017-12-27T08:17:20.841Z,5.91
2017-12-27T08:19:49.931Z,5.91
2017-12-27T08:22:19.031Z,5.91
2017-12-27T08:24:48.091Z,5.92
2017-12-27T08:27:16.424Z,5.92
2017-12-27T08:29:44.735Z,5.93
2017-12-27T08:32:13.114Z,5.95
2017-12-27T08:34:41.451Z,5.96
2017-12-27T08:37:10.529Z,5.97
2017-12-27T08:39:38.859Z,5.98
2017-12-27T08:42:07.151Z,6.00
2017-12-27T08:44:35.445Z,5.99
2017-12-27T08:47:03.763Z,6.00
2017-12-27T08:49:32.835Z,6.00
2017-12-27T08:52:01.141Z,6.02
2017-12-27T08:54:29.462Z,6.03
2017-12-27T08:56:57.765Z,6.03
2017-12-27T08:59:26.079Z,6.04
2017-12-27T09:01:54.375Z,6.04
2017-12-27T09:04:23.447Z,6.04
2017-12-27T09:06:51.753Z,6.04
2017-12-27T09:09:20.837Z,6.06
2017-12-27T09:11:49.137Z,6.07
2017-12-27T09:14:18.261Z,6.07
2017-12-27T09:16:46.574Z,6.09
2017-12-27T09:19:14.899Z,6.12
2017-12-27T09:21:43.987Z,6.12
2017-12-27T09:24:12.287Z,6.13
2017-12-27T09:26:40.606Z,6.13
2017-12-27T09:29:08.935Z,6.17
2017-12-27T09:31:38.019Z,6.20
2017-12-27T09:34:06.338Z,6.22
2017-12-27T09:36:34.659Z,6.24
2017-12-27T09:39:02.971Z,6.26
2017-12-27T09:41:31.284Z,6.28
2017-12-27T09:43:59.593Z,6.31
2017-12-27T09:46:27.912Z,6.33
2017-12-27T09:48:56.241Z,6.35
2017-12-27T09:51:24.617Z,6.37
2017-12-27T09:53:53.101Z,6.39
2017-12-27T09:56:21.400Z,6.41
2017-12-27T09:58:49.697Z,6.42
2017-12-27T10:01:18.005Z,6.46
2017-12-27T10:03:47.089Z,6.48
2017-12-27T10:06:15.384Z,6.48
2017-12-27T10:08:44.517Z,6.49
2017-12-27T10:11:12.831Z,6.47
2017-12-27T10:13:41.920Z,6.50
2017-12-27T10:16:10.272Z,6.52
2017-12-27T10:18:38.593Z,6.55
2017-12-27T10:21:07.148Z,6.59
2017-12-27T10:23:35.468Z,6.62
2017-12-27T10:26:03.812Z,6.65
2017-12-27T10:28:32.132Z,6.66
2017-12-27T10:31:00.436Z,6.69
2017-12-27T10:33:29.527Z,6.74
2017-12-27T10:35:57.846Z,6.77
2017-12-27T10:38:26.169Z,6.84
2017-12-27T10:40:55.268Z,6.88
2017-12-27T10:43:23.607Z,6.89
2017-12-27T10:45:51.909Z,6.91
2017-12-27T10:48:20.238Z,6.93
2017-12-27T10:50:49.324Z,6.97
2017-12-27T10:53:17.683Z,7.01
2017-12-27T10:55:46.000Z,7.07
2017-12-27T10:58:15.068Z,7.11
2017-12-27T11:00:43.400Z,7.15
2017-12-27T11:03:11.718Z,7.23
2017-12-27T11:05:40.091Z,7.39
2017-12-27T11:08:08.419Z,7.57
2017-12-27T11:10:36.730Z,7.76
2017-12-27T11:13:05.087Z,7.89
2017-12-27T11:15:34.158Z,7.92
2017-12-27T11:18:02.472Z,7.81
2017-12-27T11:20:31.578Z,7.76
2017-12-27T11:23:00.642Z,7.76
2017-12-27T11:25:28.996Z,7.73
2017-12-27T11:27:57.310Z,7.68
2017-12-27T11:30:25.634Z,7.63
2017-12-27T11:32:53.955Z,7.59
2017-12-27T11:35:22.302Z,7.60
2017-12-27T11:37:51.482Z,7.60
2017-12-27T11:40:19.880Z,7.60
2017-12-27T11:42:48.190Z,7.70
2017-12-27T11:45:16.532Z,7.82
2017-12-27T11:47:44.838Z,7.95
2017-12-27T11:50:13.158Z,8.09
2017-12-27T11:52:41.546Z,8.22
2017-12-27T11:55:09.837Z,8.25
2017-12-27T11:57:39.172Z,8.29
2017-12-27T12:00:07.492Z,8.42
2017-12-27T12:02:35.806Z,8.44
2017-12-27T12:05:04.910Z,8.46
2017-12-27T12:07:33.242Z,8.48
2017-12-27T12:10:01.558Z,8.44
2017-12-27T12:12:30.633Z,8.38
2017-12-27T12:14:58.934Z,8.28
2017-12-27T12:17:27.242Z,8.21
2017-12-27T12:19:55.556Z,8.13
2017-12-27T12:22:23.878Z,8.05
2017-12-27T12:24:52.176Z,8.01
2017-12-27T12:27:21.280Z,7.99
2017-12-27T12:29:49.602Z,7.96
2017-12-27T12:32:17.918Z,7.93
2017-12-27T12:34:46.210Z,7.93
2017-12-27T12:37:15.280Z,7.90
2017-12-27T12:39:43.594Z,7.92
2017-12-27T12:42:12.730Z,8.05
2017-12-27T12:44:41.040Z,8.24
2017-12-27T12:47:09.380Z,8.47
2017-12-27T12:49:37.705Z,8.67
2017-12-27T12:52:06.036Z,8.80
2017-12-27T12:54:34.328Z,8.81
2017-12-27T12:57:02.630Z,8.79
2017-12-27T12:59:30.946Z,8.76
2017-12-27T13:02:00.024Z,8.68
2017-12-27T13:04:28.394Z,8.65
2017-12-27T13:06:56.724Z,8.60
2017-12-27T13:09:25.782Z,8.54
2017-12-27T13:11:54.093Z,8.48
2017-12-27T13:14:23.163Z,8.40
2017-12-27T13:16:51.478Z,8.37
2017-12-27T13:19:20.547Z,8.32
2017-12-27T13:21:48.847Z,8.34
2017-12-27T13:24:17.918Z,8.35
2017-12-27T13:26:46.242Z,8.36
2017-12-27T13:29:15.312Z,8.36
2017-12-27T13:31:43.640Z,8.41
2017-12-27T13:34:11.952Z,8.44
2017-12-27T13:36:40.277Z,8.48
2017-12-27T13:39:09.362Z,8.54
2017-12-27T13:41:37.683Z,8.59
2017-12-27T13:44:06.492Z,8.67
2017-12-27T13:46:34.808Z,8.68
2017-12-27T13:49:03.113Z,8.58
2017-12-27T13:51:32.336Z,8.51
2017-12-27T13:54:00.655Z,8.42
2017-12-27T13:56:28.957Z,8.35
2017-12-27T13:58:57.262Z,8.29
2017-12-27T14:01:26.317Z,8.23
2017-12-27T14:03:54.641Z,8.19
2017-12-27T14:06:23.874Z,8.16
2017-12-27T14:08:52.173Z,8.15
2017-12-27T14:11:20.967Z,8.15
2017-12-27T14:13:49.284Z,8.13
2017-12-27T14:16:19.318Z,8.10
2017-12-27T14:18:48.404Z,8.07
2017-12-27T14:21:17.525Z,8.07
2017-12-27T14:23:45.842Z,8.05
2017-12-27T14:26:14.226Z,8.06
2017-12-27T14:28:42.562Z,8.10
2017-12-27T14:31:10.880Z,8.10
2017-12-27T14:33:39.212Z,8.11
2017-12-27T14:36:08.326Z,8.09
2017-12-27T14:38:36.660Z,8.06
2017-12-27T14:41:04.979Z,8.04
2017-12-27T14:43:34.075Z,8.02
2017-12-27T14:46:03.261Z,8.00
2017-12-27T14:48:32.355Z,8.00
2017-12-27T14:51:00.667Z,7.97
2017-12-27T14:53:28.965Z,7.96
2017-12-27T14:55:57.263Z,7.96
2017-12-27T14:58:25.571Z,7.95
2017-12-27T15:00:53.882Z,7.93
2017-12-27T15:03:22.167Z,7.92
2017-12-27T15:05:50.475Z,7.91
2017-12-27T15:08:18.783Z,7.89
2017-12-27T15:10:47.144Z,7.89
2017-12-27T15:13:15.504Z,7.87
2017-12-27T15:15:43.812Z,7.86
2017-12-27T15:18:12.107Z,7.86
2017-12-27T15:20:40.435Z,7.84
2017-12-27T15:23:08.741Z,7.83
2017-12-27T15:25:37.050Z,7.81
2017-12-27T15:28:05.361Z,7.80
2017-12-27T15:30:34.441Z,7.81
2017-12-27T15:33:02.751Z,7.81
2017-12-27T15:35:31.077Z,7.83
2017-12-27T15:37:59.530Z,7.83
2017-12-27T15:40:27.845Z,7.83
2017-12-27T15:42:56.195Z,7.83
2017-12-27T15:45:24.539Z,7.83
2017-12-27T15:47:53.649Z,7.83
2017-12-27T15:50:21.945Z,7.85
2017-12-27T15:52:50.243Z,7.84
2017-12-27T15:55:18.556Z,7.84
2017-12-27T15:57:46.872Z,7.85
2017-12-27T16:00:15.942Z,7.85
2017-12-27T16:02:44.279Z,7.85
2017-12-27T16:05:12.595Z,7.85
2017-12-27T16:07:40.943Z,7.86
2017-12-27T16:10:09.255Z,7.84
2017-12-27T16:12:37.584Z,7.82
2017-12-27T16:15:06.663Z,7.80
2017-12-27T16:17:35.736Z,7.79
2017-12-27T16:20:04.066Z,7.78
2017-12-27T16:22:32.389Z,7.78
2017-12-27T16:25:00.866Z,7.75
2017-12-27T16:27:29.208Z,7.75
2017-12-27T16:29:57.573Z,7.76
2017-12-27T16:32:26.663Z,7.78
2017-12-27T16:34:54.991Z,7.79
2017-12-27T16:37:23.330Z,7.79
2017-12-27T16:39:51.645Z,7.80
2017-12-27T16:42:19.970Z,7.79
2017-12-27T16:44:48.277Z,7.77
2017-12-27T16:47:17.361Z,7.73
2017-12-27T16:49:45.672Z,7.67
2017-12-27T16:52:14.747Z,7.65
2017-12-27T16:54:43.071Z,7.64
2017-12-27T16:57:11.378Z,7.64
2017-12-27T16:59:39.704Z,7.63
2017-12-27T17:02:08.799Z,7.64
2017-12-27T17:04:37.924Z,7.62
2017-12-27T17:07:06.243Z,7.58
2017-12-27T17:09:34.553Z,7.54
2017-12-27T17:12:03.696Z,7.46
2017-12-27T17:14:32.037Z,7.41
2017-12-27T17:17:01.109Z,7.35
2017-12-27T17:19:29.489Z,7.26
2017-12-27T17:21:57.791Z,7.19
2017-12-27T17:24:26.104Z,7.14
2017-12-27T17:26:54.431Z,7.11
2017-12-27T17:29:22.739Z,7.03
2017-12-27T17:31:51.809Z,6.89
2017-12-27T17:34:20.131Z,6.69
2017-12-27T17:36:49.197Z,6.46
2017-12-27T17:39:17.497Z,6.27
2017-12-27T17:41:46.593Z,6.04
2017-12-27T17:44:15.731Z,5.81
2017-12-27T17:46:44.084Z,5.58
2017-12-27T17:49:13.154Z,5.41
2017-12-27T17:51:41.445Z,5.25
2017-12-27T17:54:09.761Z,5.12
2017-12-27T17:56:38.085Z,5.05
2017-12-27T17:59:06.385Z,5.01
2017-12-27T18:01:35.469Z,5.02
2017-12-27T18:04:03.776Z,5.03
2017-12-27T18:06:32.873Z,5.03
2017-12-27T18:09:01.978Z,5.04
2017-12-27T18:11:31.073Z,5.05
2017-12-27T18:13:59.429Z,5.07
2017-12-27T18:16:27.753Z,5.08
2017-12-27T18:18:56.109Z,5.13
2017-12-27T18:21:25.177Z,5.14
2017-12-27T18:23:53.483Z,5.16
2017-12-27T18:26:22.637Z,5.16
2017-12-27T18:28:51.024Z,5.15
2017-12-27T18:31:19.411Z,5.13
2017-12-27T18:33:47.740Z,5.13
2017-12-27T18:36:16.060Z,5.12
2017-12-27T18:38:44.357Z,5.11
2017-12-27T18:41:12.658Z,5.11
2017-12-27T18:43:40.970Z,5.10
2017-12-27T18:46:09.289Z,5.11
2017-12-27T18:48:37.600Z,5.11
2017-12-27T18:51:06.897Z,5.09
2017-12-27T18:53:35.707Z,5.07
2017-12-27T18:56:04.593Z,5.09
2017-12-27T18:58:33.727Z,5.11
2017-12-27T19:01:02.033Z,5.10
2017-12-27T19:03:30.356Z,5.10
2017-12-27T19:05:58.774Z,5.11
2017-12-27T19:08:27.083Z,5.12
2017-12-27T19:10:55.525Z,5.11
2017-12-27T19:13:23.885Z,5.09
2017-12-27T19:15:52.952Z,5.08
2017-12-27T19:18:21.389Z,5.08
2017-12-27T19:20:49.717Z,5.08
2017-12-27T19:23:18.045Z,5.07
2017-12-27T19:25:46.345Z,5.08
2017-12-27T19:28:14.647Z,5.08
2017-12-27T19:30:42.960Z,5.09
2017-12-27T19:33:11.346Z,5.11
2017-12-27T19:35:40.436Z,5.09
2017-12-27T19:38:08.738Z,5.08
2017-12-27T19:40:37.969Z,5.07
2017-12-27T19:43:06.373Z,5.06
2017-12-27T19:45:34.686Z,5.05
2017-12-27T19:48:03.764Z,5.07
2017-12-27T19:50:32.092Z,5.05
2017-12-27T19:53:01.232Z,5.06
2017-12-27T19:55:29.529Z,5.07
2017-12-27T19:57:57.846Z,5.06
2017-12-27T20:00:26.923Z,5.07
2017-12-27T20:02:55.295Z,5.08
2017-12-27T20:05:23.627Z,5.09
2017-12-27T20:07:51.937Z,5.11
2017-12-27T20:10:20.344Z,5.11
2017-12-27T20:12:48.662Z,5.13
2017-12-27T20:15:17.725Z,5.14
2017-12-27T20:17:46.063Z,5.15
2017-12-27T20:20:14.403Z,5.16
2017-12-27T20:22:43.507Z,5.17
2017-12-27T20:25:12.588Z,5.19
2017-12-27T20:27:40.887Z,5.24
2017-12-27T20:30:09.964Z,5.28
2017-12-27T20:32:38.724Z,5.32
2017-12-27T20:35:07.069Z,5.34
2017-12-27T20:37:35.364Z,5.37
2017-12-27T20:40:03.708Z,5.44
2017-12-27T20:42:32.798Z,5.46
2017-12-27T20:45:01.152Z,5.48
2017-12-27T20:47:29.544Z,5.47
2017-12-27T20:49:57.859Z,5.48
2017-12-27T20:52:26.176Z,5.49
2017-12-27T20:54:54.502Z,5.49
2017-12-27T20:57:22.805Z,5.48
2017-12-27T20:59:51.887Z,5.48
2017-12-27T21:02:20.188Z,5.48
2017-12-27T21:04:48.559Z,5.48
2017-12-27T21:07:17.674Z,5.48
2017-12-27T21:09:46.029Z,5.48
2017-12-27T21:12:15.105Z,5.48
2017-12-27T21:14:43.552Z,5.48
2017-12-27T21:17:11.868Z,5.49
2017-12-27T21:19:40.220Z,5.50
2017-12-27T21:22:08.551Z,5.53
2017-12-27T21:24:37.624Z,5.55
2017-12-27T21:27:05.996Z,5.58
2017-12-27T21:29:34.354Z,5.62
2017-12-27T21:32:02.681Z,5.66
2017-12-27T21:34:31.226Z,5.75
2017-12-27T21:36:59.588Z,5.84
2017-12-27T21:39:27.962Z,5.91
2017-12-27T21:41:56.493Z,5.99
2017-12-27T21:44:24.832Z,6.05
2017-12-27T21:46:54.036Z,6.10
2017-12-27T21:49:27.826Z,6.17
2017-12-27T21:51:56.904Z,6.25
2017-12-27T21:54:25.294Z,6.27
2017-12-27T21:56:53.664Z,6.28
2017-12-27T21:59:27.538Z,6.25
2017-12-27T22:01:55.906Z,6.25
2017-12-27T22:04:24.238Z,6.25
2017-12-27T22:06:52.722Z,6.27
2017-12-27T22:09:21.062Z,6.33
2017-12-27T22:11:49.442Z,6.39
2017-12-27T22:14:17.752Z,6.42
2017-12-27T22:16:46.055Z,6.47
2017-12-27T22:19:14.345Z,6.51
2017-12-27T22:21:43.424Z,6.52
2017-12-27T22:24:11.752Z,6.53
2017-12-27T22:26:40.070Z,6.51
2017-12-27T22:29:08.366Z,6.49
2017-12-27T22:31:36.671Z,6.52
2017-12-27T22:34:05.752Z,6.50
2017-12-27T22:36:34.062Z,6.45
2017-12-27T22:39:02.380Z,6.41
2017-12-27T22:41:30.712Z,6.37
2017-12-27T22:43:59.781Z,6.35
2017-12-27T22:46:28.092Z,6.30
2017-12-27T22:48:57.178Z,6.26
2017-12-27T22:51:26.285Z,6.21
2017-12-27T22:53:55.357Z,6.20
2017-12-27T22:56:25.193Z,6.17
2017-12-27T22:58:54.263Z,6.16
2017-12-27T23:01:22.556Z,6.16
2017-12-27T23:03:50.878Z,6.14
2017-12-27T23:06:19.197Z,6.12
2017-12-27T23:08:47.514Z,6.10
2017-12-27T23:11:16.596Z,6.06
2017-12-27T23:13:44.891Z,6.00
2017-12-27T23:16:13.190Z,5.94
2017-12-27T23:18:41.504Z,5.93
2017-12-27T23:21:09.803Z,5.88
2017-12-27T23:23:38.108Z,5.83
2017-12-27T23:26:06.388Z,5.76
2017-12-27T23:28:34.698Z,5.74
2017-12-27T23:31:02.995Z,5.72
2017-12-27T23:33:31.276Z,5.78
2017-12-27T23:35:59.572Z,5.91
2017-12-27T23:38:27.866Z,6.06
2017-12-27T23:40:56.210Z,6.06
2017-12-27T23:43:24.523Z,5.96
2017-12-27T23:45:52.835Z,5.86
2017-12-27T23:48:21.125Z,5.80
2017-12-27T23:50:50.200Z,5.77
2017-12-27T23:53:18.579Z,5.75
2017-12-27T23:55:46.882Z,5.72
2017-12-27T23:58:15.969Z,5.69
